createdAt,value
2023-04-11T00:01:13.386Z,7.90
2023-04-11T00:03:41.202Z,7.80
2023-04-11T00:06:09.134Z,8.20
2023-04-11T00:08:36.763Z,8.30
2023-04-11T00:11:04.484Z,7.70
2023-04-11T00:13:32.425Z,8.50
2023-04-11T00:16:02.383Z,10.20
2023-04-11T00:18:30.114Z,9.00
2023-04-11T00:20:57.708Z,9.20
2023-04-11T00:23:25.335Z,9.80
2023-04-11T00:25:52.996Z,9.20
2023-04-11T00:28:20.778Z,9.70
2023-04-11T00:30:48.369Z,9.50
2023-04-11T00:33:16.698Z,9.90
2023-04-11T00:35:44.400Z,10.70
2023-04-11T00:38:12.052Z,10.30
2023-04-11T00:40:39.737Z,9.60
2023-04-11T00:43:07.379Z,9.90
2023-04-11T00:45:35.885Z,11.70
2023-04-11T00:48:03.819Z,12.40
2023-04-11T00:50:31.474Z,12.20
2023-04-11T00:52:59.192Z,13.90
2023-04-11T00:55:27.378Z,13.70
2023-04-11T00:57:55.539Z,13.80
2023-04-11T01:00:24.467Z,13.50
2023-04-11T01:02:52.648Z,12.50
2023-04-11T01:05:20.860Z,13.30
2023-04-11T01:07:51.427Z,12.50
2023-04-11T01:10:19.357Z,13.10
2023-04-11T01:12:47.194Z,14.00
2023-04-11T01:15:15.007Z,14.10
2023-04-11T01:17:42.738Z,12.90
2023-04-11T01:20:11.599Z,13.90
2023-04-11T01:22:40.279Z,14.00
2023-04-11T01:25:08.863Z,13.90
2023-04-11T01:27:37.819Z,14.20
2023-04-11T01:30:06.908Z,13.60
2023-04-11T01:32:35.201Z,13.70
2023-04-11T01:35:04.388Z,15.30
2023-04-11T01:37:32.047Z,14.80
2023-04-11T01:40:00.969Z,14.80
2023-04-11T01:42:30.101Z,15.20
2023-04-11T01:44:58.095Z,14.80
2023-04-11T01:47:25.873Z,13.50
2023-04-11T01:49:53.706Z,14.40
2023-04-11T01:52:21.561Z,15.30
2023-04-11T01:54:49.182Z,14.80
2023-04-11T01:57:17.238Z,14.80
2023-04-11T01:59:44.822Z,14.90
2023-04-11T02:02:12.742Z,15.10
2023-04-11T02:04:40.492Z,15.20
2023-04-11T02:07:08.116Z,15.30
2023-04-11T02:09:36.452Z,15.80
2023-04-11T02:12:04.465Z,15.40
2023-04-11T02:14:43.290Z,14.80
2023-04-11T02:17:14.066Z,15.60
2023-04-11T02:19:41.717Z,15.30
2023-04-11T02:22:09.445Z,15.40
2023-04-11T02:24:37.380Z,15.20
2023-04-11T02:27:05.340Z,14.80
2023-04-11T02:29:33.353Z,16.30
2023-04-11T02:32:01.071Z,17.00
2023-04-11T02:34:28.881Z,16.30
2023-04-11T02:36:56.560Z,15.70
2023-04-11T02:39:24.266Z,18.90
2023-04-11T02:41:51.940Z,20.40
2023-04-11T02:44:19.951Z,20.70
2023-04-11T02:46:47.937Z,19.60
2023-04-11T02:49:15.580Z,19.10
2023-04-11T02:51:45.089Z,19.00
2023-04-11T02:54:13.569Z,20.20
2023-04-11T02:56:41.311Z,19.60
2023-04-11T02:59:08.946Z,18.50
2023-04-11T03:01:38.287Z,18.60
2023-04-11T03:04:07.406Z,18.20
2023-04-11T03:06:45.650Z,18.10
2023-04-11T03:09:13.694Z,17.40
2023-04-11T03:11:42.289Z,16.40
2023-04-11T03:14:09.986Z,15.50
2023-04-11T03:16:37.654Z,17.90
2023-04-11T03:19:05.902Z,16.30
2023-04-11T03:21:33.564Z,18.10
2023-04-11T03:24:02.385Z,17.90
2023-04-11T03:26:30.014Z,17.90
2023-04-11T03:29:00.259Z,18.20
2023-04-11T03:31:31.034Z,18.50
2023-04-11T03:33:59.542Z,18.90
2023-04-11T03:36:27.682Z,18.50
2023-04-11T03:38:55.832Z,18.30
2023-04-11T03:41:23.700Z,18.70
2023-04-11T03:43:52.485Z,18.80
2023-04-11T03:46:21.849Z,17.90
2023-04-11T03:48:49.576Z,18.00
2023-04-11T03:51:18.094Z,17.10
2023-04-11T03:54:06.587Z,17.20
2023-04-11T03:56:37.138Z,16.30
2023-04-11T03:59:05.674Z,16.70
2023-04-11T04:01:42.932Z,16.00
2023-04-11T04:04:10.676Z,15.60
2023-04-11T04:06:39.881Z,15.40
2023-04-11T04:09:07.732Z,15.90
2023-04-11T04:11:46.255Z,15.60
2023-04-11T04:14:14.275Z,16.90
2023-04-11T04:16:42.177Z,16.80
2023-04-11T04:19:11.598Z,16.30
2023-04-11T04:21:43.182Z,15.90
2023-04-11T04:24:12.289Z,16.20
2023-04-11T04:27:18.114Z,16.40
2023-04-11T04:29:50.697Z,15.80
2023-04-11T04:32:36.952Z,15.90
2023-04-11T04:35:10.288Z,16.50
2023-04-11T04:37:44.995Z,17.50
2023-04-11T04:40:20.716Z,17.50
2023-04-11T04:42:59.038Z,17.10
2023-04-11T04:45:55.915Z,15.90
2023-04-11T04:48:27.161Z,17.50
2023-04-11T04:50:54.782Z,14.90
2023-04-11T04:53:22.774Z,14.90
2023-04-11T04:55:54.768Z,14.70
2023-04-11T04:58:23.191Z,15.00
2023-04-11T05:00:55.898Z,13.90
2023-04-11T05:03:26.614Z,15.20
2023-04-11T05:05:56.792Z,14.90
2023-04-11T05:08:26.072Z,15.40
2023-04-11T05:10:55.601Z,14.70
2023-04-11T05:13:23.925Z,15.20
2023-04-11T05:15:51.532Z,14.30
2023-04-11T05:18:19.574Z,14.50
2023-04-11T05:20:47.209Z,15.30
2023-04-11T05:23:19.808Z,13.50
2023-04-11T05:25:51.007Z,14.50
2023-04-11T05:28:21.131Z,15.10
2023-04-11T05:30:49.014Z,15.00
2023-04-11T05:33:17.791Z,13.70
2023-04-11T05:35:45.496Z,14.60
2023-04-11T05:38:13.131Z,14.70
2023-04-11T05:40:41.111Z,14.40
2023-04-11T05:43:13.460Z,14.80
2023-04-11T05:45:42.044Z,13.90
2023-04-11T05:48:09.888Z,14.30
2023-04-11T05:50:38.705Z,13.60
2023-04-11T05:53:06.615Z,13.40
2023-04-11T05:55:34.332Z,13.70
2023-04-11T05:58:02.238Z,13.50
2023-04-11T06:00:31.829Z,14.00
2023-04-11T06:03:00.414Z,15.00
2023-04-11T06:05:31.459Z,14.50
2023-04-11T06:07:59.684Z,14.80
2023-04-11T06:10:28.177Z,15.20
2023-04-11T06:12:56.382Z,14.50
2023-04-11T06:15:26.526Z,14.80
2023-04-11T06:17:54.320Z,14.60
2023-04-11T06:20:22.962Z,14.90
2023-04-11T06:22:51.520Z,14.00
2023-04-11T06:25:20.623Z,16.00
2023-04-11T06:27:48.566Z,15.20
2023-04-11T06:30:16.313Z,15.30
2023-04-11T06:32:43.964Z,14.50
2023-04-11T06:35:11.821Z,14.40
2023-04-11T06:37:39.526Z,14.30
2023-04-11T06:40:08.326Z,15.20
2023-04-11T06:42:35.976Z,16.00
2023-04-11T06:45:06.265Z,15.50
2023-04-11T06:47:34.065Z,14.50
2023-04-11T06:50:01.817Z,14.10
2023-04-11T06:52:30.346Z,15.30
2023-04-11T06:54:58.393Z,14.50
2023-04-11T06:57:26.269Z,14.20
2023-04-11T06:59:53.894Z,14.80
2023-04-11T07:02:24.911Z,15.00
2023-04-11T07:04:53.432Z,14.00
2023-04-11T07:07:21.328Z,14.30
2023-04-11T07:09:48.946Z,14.80
2023-04-11T07:12:16.607Z,14.30
2023-04-11T07:14:44.251Z,13.20
2023-04-11T07:17:11.875Z,12.80
2023-04-11T07:19:39.560Z,12.50
2023-04-11T07:22:07.736Z,12.00
2023-04-11T07:24:35.603Z,11.60
2023-04-11T07:27:03.239Z,11.10
2023-04-11T07:29:30.935Z,10.30
2023-04-11T07:31:58.614Z,11.50
2023-04-11T07:34:26.610Z,11.10
2023-04-11T07:36:57.881Z,10.60
2023-04-11T07:39:25.504Z,10.60
2023-04-11T07:41:54.134Z,11.30
2023-04-11T07:44:22.487Z,12.00
2023-04-11T07:46:51.495Z,11.00
2023-04-11T07:49:19.160Z,10.40
2023-04-11T07:51:46.810Z,10.40
2023-04-11T07:54:14.511Z,11.10
2023-04-11T07:56:42.176Z,10.00
2023-04-11T07:59:09.783Z,10.80
2023-04-11T08:01:37.495Z,9.80
2023-04-11T08:04:06.120Z,9.10
2023-04-11T08:06:34.422Z,9.50
2023-04-11T08:09:02.623Z,9.90
2023-04-11T08:11:30.380Z,8.80
2023-04-11T08:13:58.269Z,8.70
2023-04-11T08:16:26.197Z,7.90
2023-04-11T08:18:53.896Z,7.40
2023-04-11T08:21:23.622Z,7.80
2023-04-11T08:23:51.272Z,7.30
2023-04-11T08:26:20.099Z,7.20
2023-04-11T08:28:47.713Z,7.50
2023-04-11T08:31:15.508Z,7.10
2023-04-11T08:33:43.244Z,6.10
2023-04-11T08:36:11.330Z,5.40
2023-04-11T08:38:39.861Z,6.20
2023-04-11T08:41:07.602Z,6.60
2023-04-11T08:43:36.034Z,5.30
2023-04-11T08:46:04.357Z,5.50
2023-04-11T08:48:32.425Z,5.40
2023-04-11T08:51:00.252Z,4.90
2023-04-11T08:53:30.097Z,4.70
2023-04-11T08:55:58.899Z,4.60
2023-04-11T08:58:26.687Z,4.30
2023-04-11T09:00:54.456Z,4.60
2023-04-11T09:03:22.261Z,4.50
2023-04-11T09:05:50.421Z,4.60
2023-04-11T09:08:19.078Z,4.60
2023-04-11T09:10:46.794Z,4.60
2023-04-11T09:13:24.260Z,4.10
2023-04-11T09:16:12.113Z,3.80
2023-04-11T09:18:42.378Z,3.90
2023-04-11T09:21:12.138Z,3.60
2023-04-11T09:23:40.425Z,4.20
2023-04-11T09:26:11.483Z,4.30
2023-04-11T09:28:42.591Z,4.10
2023-04-11T09:31:13.287Z,4.20
2023-04-11T09:33:53.661Z,4.10
2023-04-11T09:36:24.021Z,4.40
2023-04-11T09:38:51.807Z,3.90
2023-04-11T09:41:34.039Z,4.20
2023-04-11T09:44:02.408Z,4.00
2023-04-11T09:46:30.296Z,4.10
2023-04-11T09:48:58.121Z,4.40
2023-04-11T09:53:57.956Z,3.90
2023-04-11T09:56:27.320Z,3.80
2023-04-11T09:58:57.342Z,3.30
2023-04-11T10:01:25.448Z,3.60
2023-04-11T10:03:54.054Z,3.90
2023-04-11T10:06:31.749Z,4.20
2023-04-11T10:09:11.496Z,3.40
2023-04-11T10:11:43.665Z,3.90
2023-04-11T10:14:41.704Z,3.60
2023-04-11T10:17:21.181Z,3.70
2023-04-11T10:19:57.275Z,3.50
2023-04-11T10:22:44.049Z,3.10
2023-04-11T10:25:15.401Z,3.50
2023-04-11T10:27:53.009Z,3.30
2023-04-11T10:30:43.667Z,3.70
2023-04-11T10:33:11.963Z,3.50
2023-04-11T10:36:02.245Z,3.50
2023-04-11T10:38:47.320Z,3.40
2023-04-11T10:41:33.541Z,4.00
2023-04-11T10:44:24.774Z,3.50
2023-04-11T10:46:54.625Z,3.40
2023-04-11T10:49:36.538Z,3.40
2023-04-11T10:52:21.711Z,3.20
2023-04-11T10:54:51.506Z,2.70
2023-04-11T10:57:19.724Z,2.70
2023-04-11T10:59:50.827Z,2.60
2023-04-11T11:02:21.819Z,2.90
2023-04-11T11:04:50.745Z,3.00
2023-04-11T11:07:18.747Z,2.70
2023-04-11T11:09:51.055Z,3.20
2023-04-11T11:12:19.061Z,2.80
2023-04-11T11:14:47.303Z,3.00
2023-04-11T11:17:16.144Z,2.60
2023-04-11T11:19:45.129Z,2.80
2023-04-11T11:22:25.892Z,2.90
2023-04-11T11:24:54.158Z,3.00
2023-04-11T11:27:23.501Z,3.20
2023-04-11T11:29:51.967Z,3.40
2023-04-11T11:32:29.875Z,3.20
2023-04-11T11:34:58.809Z,2.70
2023-04-11T11:37:27.048Z,3.10
2023-04-11T11:39:54.730Z,3.10
2023-04-11T11:42:22.565Z,2.90
2023-04-11T11:44:50.396Z,2.60
2023-04-11T11:47:18.673Z,2.40
2023-04-11T11:49:56.720Z,2.70
2023-04-11T11:52:39.705Z,2.80
2023-04-11T11:55:28.768Z,2.90
2023-04-11T11:58:01.196Z,2.40
2023-04-11T12:00:31.233Z,2.50
2023-04-11T12:02:59.994Z,2.60
2023-04-11T12:05:32.999Z,2.70
2023-04-11T12:08:06.400Z,2.80
2023-04-11T12:10:42.496Z,3.00
2023-04-11T12:13:22.684Z,3.00
2023-04-11T12:16:01.583Z,2.70
2023-04-11T12:18:29.329Z,2.80
2023-04-11T12:20:58.590Z,3.20
2023-04-11T12:23:26.398Z,3.00
2023-04-11T12:25:54.153Z,2.50
2023-04-11T12:28:21.892Z,2.50
2023-04-11T12:30:49.592Z,3.00
2023-04-11T12:33:17.525Z,3.60
2023-04-11T12:35:45.197Z,3.80
2023-04-11T12:38:14.963Z,3.70
2023-04-11T12:40:46.092Z,3.60
2023-04-11T12:43:13.818Z,3.00
2023-04-11T12:45:41.458Z,3.00
2023-04-11T12:48:09.116Z,2.80
2023-04-11T12:50:36.783Z,2.90
2023-04-11T12:53:04.401Z,3.10
2023-04-11T12:55:32.100Z,3.60
2023-04-11T12:58:00.945Z,3.80
2023-04-11T13:00:29.335Z,3.20
2023-04-11T13:02:58.651Z,3.10
2023-04-11T13:05:27.225Z,3.60
2023-04-11T13:07:54.849Z,4.20
2023-04-11T13:10:22.517Z,4.00
2023-04-11T13:12:53.299Z,3.90
2023-04-11T13:15:21.286Z,4.70
2023-04-11T13:17:50.271Z,5.30
2023-04-11T13:20:17.933Z,5.20
2023-04-11T13:22:46.095Z,3.90
2023-04-11T13:25:13.782Z,3.90
2023-04-11T13:27:41.893Z,4.40
2023-04-11T13:30:10.625Z,4.30
2023-04-11T13:32:38.472Z,4.00
2023-04-11T13:35:07.112Z,4.70
2023-04-11T13:37:34.796Z,4.50
2023-04-11T13:40:07.553Z,4.50
2023-04-11T13:42:35.241Z,4.90
2023-04-11T13:45:04.452Z,5.10
2023-04-11T13:47:32.217Z,4.60
2023-04-11T13:49:59.841Z,4.30
2023-04-11T13:52:27.525Z,4.40
2023-04-11T13:54:55.250Z,4.20
2023-04-11T13:57:23.262Z,4.40
2023-04-11T13:59:50.985Z,4.80
2023-04-11T14:02:18.683Z,4.50
2023-04-11T14:04:46.548Z,4.40
2023-04-11T14:07:14.172Z,4.70
2023-04-11T14:09:42.099Z,4.30
2023-04-11T14:12:09.734Z,4.60
2023-04-11T14:14:37.342Z,4.50
2023-04-11T14:17:05.018Z,4.80
2023-04-11T14:19:32.893Z,5.00
2023-04-11T14:22:00.693Z,4.80
2023-04-11T14:24:28.881Z,4.10
2023-04-11T14:26:56.890Z,4.30
2023-04-11T14:29:25.973Z,4.50
2023-04-11T14:31:53.953Z,4.60
2023-04-11T14:34:22.021Z,4.40
2023-04-11T14:36:49.708Z,4.40
2023-04-11T14:39:17.501Z,4.40
2023-04-11T14:41:45.301Z,4.10
2023-04-11T14:44:12.884Z,4.00
2023-04-11T14:46:40.600Z,4.20
2023-04-11T14:49:08.514Z,5.50
2023-04-11T14:51:36.592Z,4.60
2023-04-11T14:54:04.346Z,4.80
2023-04-11T14:56:32.453Z,4.90
2023-04-11T14:59:00.421Z,5.40
2023-04-11T15:01:28.178Z,4.60
2023-04-11T15:03:56.757Z,4.60
2023-04-11T15:06:24.582Z,4.70
2023-04-11T15:08:52.499Z,4.50
2023-04-11T15:11:20.254Z,4.50
2023-04-11T15:13:48.366Z,4.80
2023-04-11T15:16:16.937Z,5.10
2023-04-11T15:18:45.676Z,5.00
2023-04-11T15:21:13.881Z,4.90
2023-04-11T15:23:42.417Z,5.60
2023-04-11T15:26:10.127Z,4.30
2023-04-11T15:28:38.779Z,4.90
2023-04-11T15:31:09.041Z,4.80
2023-04-11T15:33:38.329Z,4.80
2023-04-11T15:36:06.506Z,4.60
2023-04-11T15:38:35.415Z,5.00
2023-04-11T15:41:03.107Z,5.00
2023-04-11T15:43:32.160Z,5.30
2023-04-11T15:46:01.380Z,5.20
2023-04-11T15:48:29.744Z,5.40
2023-04-11T15:50:57.341Z,5.30
2023-04-11T15:53:24.980Z,5.80
2023-04-11T15:55:52.991Z,5.50
2023-04-11T15:58:20.991Z,5.70
2023-04-11T16:00:48.584Z,6.80
2023-04-11T16:03:16.683Z,6.10
2023-04-11T16:05:45.025Z,5.90
2023-04-11T16:08:12.761Z,6.40
2023-04-11T16:10:40.462Z,6.40
2023-04-11T16:13:08.964Z,6.40
2023-04-11T16:15:36.694Z,6.60
2023-04-11T16:18:04.524Z,7.40
2023-04-11T16:20:33.313Z,8.30
2023-04-11T16:23:00.930Z,7.70
2023-04-11T16:25:28.812Z,9.10
2023-04-11T16:27:56.463Z,9.60
2023-04-11T16:30:26.289Z,11.30
2023-04-11T16:32:54.101Z,13.10
2023-04-11T16:35:22.284Z,11.10
2023-04-11T16:37:49.922Z,12.60
2023-04-11T16:40:17.642Z,13.30
2023-04-11T16:42:45.262Z,15.40
2023-04-11T16:45:13.362Z,15.90
2023-04-11T16:47:41.329Z,15.90
2023-04-11T16:50:09.485Z,18.10
2023-04-11T16:52:37.121Z,35.10
2023-04-11T16:55:05.555Z,48.30
2023-04-11T16:57:33.654Z,26.50
2023-04-11T17:00:11.786Z,26.20
2023-04-11T17:02:39.469Z,25.40
2023-04-11T17:05:08.417Z,25.30
2023-04-11T17:07:36.102Z,25.70
2023-04-11T17:10:05.311Z,26.60
2023-04-11T17:12:33.315Z,25.60
2023-04-11T17:15:01.127Z,25.00
2023-04-11T17:17:28.926Z,25.10
2023-04-11T17:19:57.010Z,27.70
2023-04-11T17:22:25.309Z,55.50
2023-04-11T17:24:53.834Z,46.60
2023-04-11T17:27:21.612Z,22.70
2023-04-11T17:29:49.922Z,26.00
2023-04-11T17:32:18.145Z,23.30
2023-04-11T17:34:47.825Z,21.80
2023-04-11T17:37:16.761Z,22.10
2023-04-11T17:39:46.332Z,22.30
2023-04-11T17:42:14.790Z,29.50
2023-04-11T17:44:42.782Z,25.50
2023-04-11T17:47:10.778Z,22.50
2023-04-11T17:49:38.490Z,22.50
2023-04-11T17:52:06.588Z,23.00
2023-04-11T17:54:34.528Z,26.10
2023-04-11T17:57:03.271Z,26.30
2023-04-11T17:59:31.739Z,27.10
2023-04-11T18:01:59.886Z,26.50
2023-04-11T18:04:28.948Z,26.60
2023-04-11T18:06:58.194Z,24.10
2023-04-11T18:09:31.810Z,22.20
2023-04-11T18:12:00.339Z,22.10
2023-04-11T18:14:28.393Z,19.50
2023-04-11T18:16:56.873Z,20.10
2023-04-11T18:19:24.691Z,39.10
2023-04-11T18:21:52.863Z,29.50
2023-04-11T18:24:20.892Z,23.10
2023-04-11T18:26:52.752Z,25.20
2023-04-11T18:29:20.799Z,26.30
2023-04-11T18:31:48.668Z,24.20
2023-04-11T18:34:16.618Z,23.80
2023-04-11T18:36:44.734Z,25.60
2023-04-11T18:39:12.812Z,26.30
2023-04-11T18:41:40.484Z,27.10
2023-04-11T18:44:09.788Z,34.50
2023-04-11T18:46:38.171Z,27.20
2023-04-11T18:49:07.424Z,52.90
2023-04-11T18:51:35.560Z,33.90
2023-04-11T18:54:04.409Z,30.20
2023-04-11T18:56:32.312Z,26.40
2023-04-11T18:59:06.110Z,26.40
2023-04-11T19:01:37.302Z,27.80
2023-04-11T19:04:06.070Z,28.50
2023-04-11T19:06:34.313Z,33.10
2023-04-11T19:09:02.313Z,27.70
2023-04-11T19:11:31.133Z,27.10
2023-04-11T19:14:00.404Z,28.60
2023-04-11T19:16:29.225Z,27.10
2023-04-11T19:18:57.895Z,25.10
2023-04-11T19:21:26.960Z,24.10
2023-04-11T19:23:57.633Z,25.00
2023-04-11T19:26:28.690Z,23.10
2023-04-11T19:28:58.071Z,23.00
2023-04-11T19:31:26.566Z,19.80
2023-04-11T19:33:55.263Z,18.30
2023-04-11T19:36:23.726Z,16.90
2023-04-11T19:38:51.855Z,16.20
2023-04-11T19:41:19.721Z,13.90
2023-04-11T19:43:47.807Z,13.20
2023-04-11T19:46:16.397Z,11.20
2023-04-11T19:48:44.717Z,10.20
2023-04-11T19:51:12.837Z,10.10
2023-04-11T19:53:40.535Z,8.60
2023-04-11T19:56:10.690Z,8.40
2023-04-11T19:58:39.913Z,8.10
2023-04-11T20:01:08.416Z,7.00
2023-04-11T20:03:36.224Z,6.50
2023-04-11T20:06:05.766Z,7.00
2023-04-11T20:08:33.966Z,7.40
2023-04-11T20:11:03.865Z,7.50
2023-04-11T20:13:33.660Z,7.60
2023-04-11T20:16:04.630Z,8.60
2023-04-11T20:18:34.140Z,9.60
2023-04-11T20:21:03.111Z,9.20
2023-04-11T20:23:33.538Z,9.20
2023-04-11T20:26:01.445Z,7.60
2023-04-11T20:28:30.414Z,7.30
2023-04-11T20:30:59.168Z,7.30
2023-04-11T20:33:27.562Z,6.30
2023-04-11T20:35:58.345Z,6.40
2023-04-11T20:38:27.619Z,6.40
2023-04-11T20:40:55.692Z,7.00
2023-04-11T20:43:25.261Z,7.10
2023-04-11T20:45:54.112Z,7.20
2023-04-11T20:48:21.759Z,7.60
2023-04-11T20:50:49.935Z,7.60
2023-04-11T20:53:17.529Z,6.70
2023-04-11T20:55:45.467Z,5.90
2023-04-11T20:58:17.126Z,5.70
2023-04-11T21:00:44.782Z,7.10
2023-04-11T21:03:13.059Z,7.00
2023-04-11T21:05:44.366Z,7.80
2023-04-11T21:08:13.309Z,8.50
2023-04-11T21:10:41.026Z,9.90
2023-04-11T21:13:08.619Z,11.60
2023-04-11T21:15:36.330Z,11.20
2023-04-11T21:18:05.468Z,11.10
2023-04-11T21:20:35.057Z,11.30
2023-04-11T21:23:02.783Z,12.00
2023-04-11T21:25:30.872Z,13.60
2023-04-11T21:27:58.462Z,15.50
2023-04-11T21:30:26.044Z,15.20
2023-04-11T21:32:53.673Z,16.30
2023-04-11T21:35:21.361Z,15.80
2023-04-11T21:37:49.292Z,15.50
2023-04-11T21:40:17.159Z,16.30
2023-04-11T21:42:44.808Z,16.90
2023-04-11T21:45:12.497Z,17.80
2023-04-11T21:47:40.173Z,18.00
2023-04-11T21:50:08.825Z,19.20
2023-04-11T21:52:36.574Z,18.70
2023-04-11T21:55:06.534Z,19.90
2023-04-11T21:57:36.334Z,19.50
2023-04-11T22:00:06.070Z,18.30
2023-04-11T22:02:41.136Z,18.50
2023-04-11T22:05:09.583Z,18.30
2023-04-11T22:07:46.655Z,17.70
2023-04-11T22:10:15.522Z,18.70
2023-04-11T22:12:45.648Z,18.60
2023-04-11T22:15:14.098Z,19.00
2023-04-11T22:17:42.681Z,19.80
2023-04-11T22:20:11.230Z,19.70
2023-04-11T22:22:38.976Z,20.70
2023-04-11T22:25:08.347Z,21.60
2023-04-11T22:27:36.211Z,20.20
2023-04-11T22:30:05.294Z,21.40
2023-04-11T22:32:33.638Z,21.70
2023-04-11T22:35:01.466Z,20.50
2023-04-11T22:37:29.040Z,21.90
2023-04-11T22:39:56.667Z,21.70
2023-04-11T22:42:24.798Z,22.70
2023-04-11T22:44:52.459Z,22.90
2023-04-11T22:47:21.814Z,22.70
2023-04-11T22:49:50.527Z,22.40
2023-04-11T22:52:24.096Z,22.90
2023-04-11T22:54:52.047Z,22.50
2023-04-11T22:57:19.654Z,22.30
2023-04-11T22:59:47.407Z,23.40
2023-04-11T23:02:15.158Z,23.20
2023-04-11T23:04:43.035Z,22.10
2023-04-11T23:07:10.740Z,21.60
2023-04-11T23:09:38.403Z,21.50
2023-04-11T23:12:06.655Z,23.30
2023-04-11T23:14:34.238Z,20.90
2023-04-11T23:17:01.888Z,22.20
2023-04-11T23:19:29.988Z,22.60
2023-04-11T23:21:57.831Z,22.80
2023-04-11T23:24:26.530Z,23.40
2023-04-11T23:26:54.148Z,23.40
2023-04-11T23:29:22.092Z,24.50
2023-04-11T23:31:49.728Z,24.70
2023-04-11T23:34:17.328Z,24.40
2023-04-11T23:36:44.967Z,24.80
2023-04-11T23:39:12.586Z,25.90
2023-04-11T23:41:41.529Z,27.70
2023-04-11T23:44:09.183Z,27.60
2023-04-11T23:46:37.020Z,28.00
2023-04-11T23:49:05.043Z,28.60
2023-04-11T23:51:32.703Z,29.00
2023-04-11T23:54:00.640Z,30.00
2023-04-11T23:56:28.536Z,30.70
2023-04-11T23:58:56.173Z,31.60
